sensor_id;sensor_type;location;lat;lon;timestamp;P1;durP1;ratioP1;P2;durP2;ratioP2
9819;SDS011;4949;48.482;9.206;2023-02-01T00:02:51;3.70;;;3.40;;
9819;SDS011;4949;48.482;9.206;2023-02-01T00:07:52;3.87;;;3.57;;
9819;SDS011;4949;48.482;9.206;2023-02-01T00:12:52;2.90;;;2.70;;
9819;SDS011;4949;48.482;9.206;2023-02-01T00:17:54;3.33;;;3.03;;
9819;SDS011;4949;48.482;9.206;2023-02-01T00:22:55;3.90;;;3.30;;
9819;SDS011;4949;48.482;9.206;2023-02-01T00:27:58;4.77;;;3.30;;
9819;SDS011;4949;48.482;9.206;2023-02-01T00:33:01;2.93;;;2.73;;
9819;SDS011;4949;48.482;9.206;2023-02-01T00:38:02;5.57;;;3.37;;
9819;SDS011;4949;48.482;9.206;2023-02-01T00:43:03;3.30;;;3.00;;
9819;SDS011;4949;48.482;9.206;2023-02-01T00:48:04;3.60;;;3.17;;
9819;SDS011;4949;48.482;9.206;2023-02-01T00:53:05;3.30;;;3.00;;
9819;SDS011;4949;48.482;9.206;2023-02-01T00:58:05;3.10;;;2.80;;
9819;SDS011;4949;48.482;9.206;2023-02-01T01:03:09;3.97;;;3.30;;
9819;SDS011;4949;48.482;9.206;2023-02-01T01:08:18;3.80;;;2.87;;
9819;SDS011;4949;48.482;9.206;2023-02-01T01:13:21;2.70;;;2.50;;
9819;SDS011;4949;48.482;9.206;2023-02-01T01:18:22;3.40;;;3.10;;
9819;SDS011;4949;48.482;9.206;2023-02-01T01:23:25;2.77;;;2.57;;
9819;SDS011;4949;48.482;9.206;2023-02-01T01:28:27;2.90;;;2.60;;
9819;SDS011;4949;48.482;9.206;2023-02-01T01:33:30;2.83;;;2.63;;
9819;SDS011;4949;48.482;9.206;2023-02-01T01:38:31;3.20;;;2.80;;
9819;SDS011;4949;48.482;9.206;2023-02-01T01:43:48;3.93;;;2.47;;
9819;SDS011;4949;48.482;9.206;2023-02-01T01:48:53;2.57;;;2.37;;
9819;SDS011;4949;48.482;9.206;2023-02-01T01:54:16;4.80;;;2.27;;
9819;SDS011;4949;48.482;9.206;2023-02-01T01:59:24;2.00;;;1.90;;
9819;SDS011;4949;48.482;9.206;2023-02-01T02:04:25;2.10;;;1.90;;
9819;SDS011;4949;48.482;9.206;2023-02-01T02:09:26;1.90;;;1.80;;
9819;SDS011;4949;48.482;9.206;2023-02-01T02:14:27;2.23;;;2.03;;
9819;SDS011;4949;48.482;9.206;2023-02-01T02:41:09;2.80;;;2.30;;
9819;SDS011;4949;48.482;9.206;2023-02-01T02:46:14;3.47;;;2.47;;
9819;SDS011;4949;48.482;9.206;2023-02-01T02:51:44;2.43;;;2.23;;
9819;SDS011;4949;48.482;9.206;2023-02-01T02:57:16;2.40;;;2.20;;
9819;SDS011;4949;48.482;9.206;2023-02-01T03:02:49;2.20;;;2.00;;
9819;SDS011;4949;48.482;9.206;2023-02-01T03:08:13;3.90;;;2.30;;
9819;SDS011;4949;48.482;9.206;2023-02-01T03:18:34;2.40;;;2.20;;
9819;SDS011;4949;48.482;9.206;2023-02-01T03:23:48;2.27;;;2.13;;
9819;SDS011;4949;48.482;9.206;2023-02-01T03:29:02;2.27;;;2.17;;
9819;SDS011;4949;48.482;9.206;2023-02-01T03:34:11;2.10;;;1.87;;
9819;SDS011;4949;48.482;9.206;2023-02-01T03:39:15;1.93;;;1.73;;
9819;SDS011;4949;48.482;9.206;2023-02-01T03:44:38;2.30;;;2.13;;
9819;SDS011;4949;48.482;9.206;2023-02-01T03:49:57;2.23;;;2.10;;
9819;SDS011;4949;48.482;9.206;2023-02-01T03:55:05;2.10;;;2.00;;
9819;SDS011;4949;48.482;9.206;2023-02-01T04:00:29;2.50;;;2.30;;
9819;SDS011;4949;48.482;9.206;2023-02-01T04:05:31;2.67;;;2.47;;
9819;SDS011;4949;48.482;9.206;2023-02-01T04:10:32;2.70;;;2.10;;
9819;SDS011;4949;48.482;9.206;2023-02-01T04:15:35;4.20;;;2.10;;
9819;SDS011;4949;48.482;9.206;2023-02-01T04:20:38;2.00;;;1.90;;
9819;SDS011;4949;48.482;9.206;2023-02-01T04:25:39;6.00;;;2.40;;
9819;SDS011;4949;48.482;9.206;2023-02-01T04:30:40;2.67;;;2.37;;
9819;SDS011;4949;48.482;9.206;2023-02-01T04:35:43;2.57;;;2.37;;
9819;SDS011;4949;48.482;9.206;2023-02-01T04:40:46;2.40;;;2.20;;
9819;SDS011;4949;48.482;9.206;2023-02-01T04:45:50;2.30;;;2.10;;
9819;SDS011;4949;48.482;9.206;2023-02-01T04:50:51;2.90;;;1.93;;
9819;SDS011;4949;48.482;9.206;2023-02-01T04:55:55;2.20;;;2.00;;
9819;SDS011;4949;48.482;9.206;2023-02-01T05:01:01;2.60;;;2.37;;
9819;SDS011;4949;48.482;9.206;2023-02-01T05:06:08;2.37;;;2.17;;
9819;SDS011;4949;48.482;9.206;2023-02-01T05:11:09;2.10;;;1.90;;
9819;SDS011;4949;48.482;9.206;2023-02-01T05:16:31;2.43;;;2.23;;
9819;SDS011;4949;48.482;9.206;2023-02-01T05:21:37;2.63;;;2.43;;
9819;SDS011;4949;48.482;9.206;2023-02-01T05:26:39;2.43;;;1.57;;
9819;SDS011;4949;48.482;9.206;2023-02-01T05:31:40;2.57;;;2.37;;
9819;SDS011;4949;48.482;9.206;2023-02-01T05:36:41;2.70;;;1.93;;
9819;SDS011;4949;48.482;9.206;2023-02-01T05:41:44;2.20;;;2.10;;
9819;SDS011;4949;48.482;9.206;2023-02-01T05:46:45;2.00;;;1.80;;
9819;SDS011;4949;48.482;9.206;2023-02-01T05:51:46;2.80;;;2.00;;
9819;SDS011;4949;48.482;9.206;2023-02-01T05:56:46;1.87;;;1.77;;
9819;SDS011;4949;48.482;9.206;2023-02-01T06:01:47;1.90;;;1.80;;
9819;SDS011;4949;48.482;9.206;2023-02-01T06:06:50;2.00;;;1.90;;
9819;SDS011;4949;48.482;9.206;2023-02-01T06:11:51;1.87;;;1.77;;
9819;SDS011;4949;48.482;9.206;2023-02-01T06:16:54;2.60;;;2.30;;
9819;SDS011;4949;48.482;9.206;2023-02-01T06:21:57;1.83;;;1.73;;
9819;SDS011;4949;48.482;9.206;2023-02-01T06:26:58;2.20;;;2.00;;
9819;SDS011;4949;48.482;9.206;2023-02-01T06:32:01;1.90;;;1.80;;
9819;SDS011;4949;48.482;9.206;2023-02-01T06:37:05;3.17;;;2.93;;
9819;SDS011;4949;48.482;9.206;2023-02-01T06:42:06;3.87;;;2.23;;
9819;SDS011;4949;48.482;9.206;2023-02-01T06:47:11;2.53;;;2.23;;
9819;SDS011;4949;48.482;9.206;2023-02-01T06:52:15;2.10;;;1.90;;
9819;SDS011;4949;48.482;9.206;2023-02-01T06:57:20;2.13;;;2.03;;
9819;SDS011;4949;48.482;9.206;2023-02-01T07:02:21;1.93;;;1.83;;
9819;SDS011;4949;48.482;9.206;2023-02-01T07:07:22;2.90;;;2.70;;
9819;SDS011;4949;48.482;9.206;2023-02-01T07:12:23;2.93;;;2.33;;
9819;SDS011;4949;48.482;9.206;2023-02-01T07:17:24;2.43;;;2.07;;
9819;SDS011;4949;48.482;9.206;2023-02-01T07:22:25;2.10;;;2.00;;
9819;SDS011;4949;48.482;9.206;2023-02-01T07:27:26;2.33;;;2.13;;
9819;SDS011;4949;48.482;9.206;2023-02-01T07:32:27;2.20;;;2.10;;
9819;SDS011;4949;48.482;9.206;2023-02-01T07:37:29;2.20;;;2.10;;
9819;SDS011;4949;48.482;9.206;2023-02-01T07:42:30;2.63;;;2.43;;
9819;SDS011;4949;48.482;9.206;2023-02-01T07:47:31;2.23;;;2.03;;
9819;SDS011;4949;48.482;9.206;2023-02-01T07:52:34;1.97;;;1.87;;
9819;SDS011;4949;48.482;9.206;2023-02-01T07:57:35;4.00;;;2.23;;
9819;SDS011;4949;48.482;9.206;2023-02-01T08:02:35;2.10;;;2.00;;
9819;SDS011;4949;48.482;9.206;2023-02-01T08:07:36;2.10;;;1.90;;
9819;SDS011;4949;48.482;9.206;2023-02-01T08:12:42;3.70;;;2.43;;
9819;SDS011;4949;48.482;9.206;2023-02-01T08:18:05;2.40;;;2.20;;
9819;SDS011;4949;48.482;9.206;2023-02-01T08:23:07;2.50;;;2.30;;
9819;SDS011;4949;48.482;9.206;2023-02-01T08:28:09;3.30;;;2.77;;
9819;SDS011;4949;48.482;9.206;2023-02-01T08:33:14;2.43;;;2.23;;
9819;SDS011;4949;48.482;9.206;2023-02-01T08:38:17;2.50;;;2.30;;
9819;SDS011;4949;48.482;9.206;2023-02-01T08:43:18;2.20;;;2.00;;
9819;SDS011;4949;48.482;9.206;2023-02-01T08:48:19;3.67;;;2.20;;
9819;SDS011;4949;48.482;9.206;2023-02-01T08:53:22;2.23;;;2.03;;
9819;SDS011;4949;48.482;9.206;2023-02-01T08:58:25;1.90;;;1.80;;
9819;SDS011;4949;48.482;9.206;2023-02-01T09:03:26;2.90;;;2.43;;
9819;SDS011;4949;48.482;9.206;2023-02-01T09:08:27;2.23;;;2.00;;
9819;SDS011;4949;48.482;9.206;2023-02-01T09:13:28;2.10;;;1.90;;
9819;SDS011;4949;48.482;9.206;2023-02-01T09:18:29;2.77;;;2.40;;
9819;SDS011;4949;48.482;9.206;2023-02-01T09:23:33;2.53;;;2.03;;
9819;SDS011;4949;48.482;9.206;2023-02-01T09:28:36;3.83;;;2.73;;
9819;SDS011;4949;48.482;9.206;2023-02-01T09:33:37;5.13;;;2.40;;
9819;SDS011;4949;48.482;9.206;2023-02-01T09:38:40;2.40;;;2.20;;
9819;SDS011;4949;48.482;9.206;2023-02-01T09:43:48;3.97;;;2.50;;
9819;SDS011;4949;48.482;9.206;2023-02-01T09:49:04;3.07;;;2.80;;
9819;SDS011;4949;48.482;9.206;2023-02-01T09:54:17;6.20;;;2.70;;
9819;SDS011;4949;48.482;9.206;2023-02-01T10:04:46;2.80;;;2.60;;
9819;SDS011;4949;48.482;9.206;2023-02-01T10:09:54;3.23;;;2.60;;
9819;SDS011;4949;48.482;9.206;2023-02-01T10:15:40;5.63;;;3.50;;
9819;SDS011;4949;48.482;9.206;2023-02-01T10:26:24;8.50;;;2.90;;
9819;SDS011;4949;48.482;9.206;2023-02-01T10:31:32;4.20;;;3.20;;
9819;SDS011;4949;48.482;9.206;2023-02-01T10:36:41;6.70;;;3.00;;
9819;SDS011;4949;48.482;9.206;2023-02-01T10:41:49;7.23;;;3.00;;
9819;SDS011;4949;48.482;9.206;2023-02-01T10:46:51;4.37;;;2.90;;
9819;SDS011;4949;48.482;9.206;2023-02-01T10:52:14;4.17;;;2.63;;
9819;SDS011;4949;48.482;9.206;2023-02-01T10:57:34;3.70;;;2.57;;
9819;SDS011;4949;48.482;9.206;2023-02-01T11:02:37;6.60;;;3.00;;
9819;SDS011;4949;48.482;9.206;2023-02-01T11:07:40;7.30;;;3.70;;
9819;SDS011;4949;48.482;9.206;2023-02-01T11:12:54;6.73;;;3.23;;
9819;SDS011;4949;48.482;9.206;2023-02-01T11:17:57;6.30;;;3.20;;
9819;SDS011;4949;48.482;9.206;2023-02-01T11:23:19;4.70;;;3.20;;
9819;SDS011;4949;48.482;9.206;2023-02-01T11:28:27;5.43;;;3.70;;
9819;SDS011;4949;48.482;9.206;2023-02-01T11:33:34;3.27;;;2.73;;
9819;SDS011;4949;48.482;9.206;2023-02-01T11:38:41;6.07;;;3.10;;
9819;SDS011;4949;48.482;9.206;2023-02-01T11:44:21;16.03;;;3.77;;
9819;SDS011;4949;48.482;9.206;2023-02-01T11:49:31;3.90;;;3.10;;
9819;SDS011;4949;48.482;9.206;2023-02-01T12:20:58;4.23;;;2.80;;
9819;SDS011;4949;48.482;9.206;2023-02-01T12:48:22;5.77;;;2.70;;
9819;SDS011;4949;48.482;9.206;2023-02-01T12:59:10;3.67;;;2.50;;
9819;SDS011;4949;48.482;9.206;2023-02-01T13:04:36;5.03;;;3.20;;
9819;SDS011;4949;48.482;9.206;2023-02-01T13:15:39;5.67;;;2.63;;
9819;SDS011;4949;48.482;9.206;2023-02-01T13:21:04;6.53;;;3.50;;
9819;SDS011;4949;48.482;9.206;2023-02-01T13:26:09;4.13;;;3.50;;
9819;SDS011;4949;48.482;9.206;2023-02-01T13:36:48;5.43;;;3.43;;
9819;SDS011;4949;48.482;9.206;2023-02-01T13:52:37;6.93;;;3.23;;
9819;SDS011;4949;48.482;9.206;2023-02-01T13:57:42;6.17;;;3.53;;
9819;SDS011;4949;48.482;9.206;2023-02-01T14:02:46;6.53;;;2.97;;
9819;SDS011;4949;48.482;9.206;2023-02-01T14:13:05;7.33;;;3.30;;
9819;SDS011;4949;48.482;9.206;2023-02-01T14:23:45;4.00;;;2.57;;
9819;SDS011;4949;48.482;9.206;2023-02-01T14:29:03;3.93;;;3.20;;
9819;SDS011;4949;48.482;9.206;2023-02-01T14:34:24;5.10;;;3.23;;
9819;SDS011;4949;48.482;9.206;2023-02-01T14:44:44;8.00;;;3.27;;
9819;SDS011;4949;48.482;9.206;2023-02-01T14:55:02;4.90;;;3.27;;
9819;SDS011;4949;48.482;9.206;2023-02-01T15:00:17;9.17;;;3.97;;
9819;SDS011;4949;48.482;9.206;2023-02-01T15:05:33;11.73;;;3.43;;
9819;SDS011;4949;48.482;9.206;2023-02-01T15:10:39;6.03;;;3.33;;
9819;SDS011;4949;48.482;9.206;2023-02-01T15:15:45;6.07;;;3.43;;
9819;SDS011;4949;48.482;9.206;2023-02-01T15:21:31;6.20;;;4.00;;
9819;SDS011;4949;48.482;9.206;2023-02-01T15:26:52;8.13;;;3.30;;
9819;SDS011;4949;48.482;9.206;2023-02-01T15:31:54;8.57;;;2.73;;
9819;SDS011;4949;48.482;9.206;2023-02-01T15:37:04;10.40;;;3.77;;
9819;SDS011;4949;48.482;9.206;2023-02-01T15:42:11;6.80;;;3.10;;
9819;SDS011;4949;48.482;9.206;2023-02-01T15:47:19;6.20;;;3.60;;
9819;SDS011;4949;48.482;9.206;2023-02-01T15:52:39;5.30;;;3.20;;
9819;SDS011;4949;48.482;9.206;2023-02-01T15:57:46;7.77;;;3.60;;
9819;SDS011;4949;48.482;9.206;2023-02-01T16:08:03;9.03;;;3.50;;
9819;SDS011;4949;48.482;9.206;2023-02-01T16:13:16;5.00;;;3.40;;
9819;SDS011;4949;48.482;9.206;2023-02-01T16:18:20;6.40;;;4.00;;
9819;SDS011;4949;48.482;9.206;2023-02-01T16:23:22;3.10;;;2.80;;
9819;SDS011;4949;48.482;9.206;2023-02-01T16:28:29;7.70;;;3.87;;
9819;SDS011;4949;48.482;9.206;2023-02-01T16:33:30;5.90;;;3.60;;
9819;SDS011;4949;48.482;9.206;2023-02-01T16:38:31;10.87;;;3.77;;
9819;SDS011;4949;48.482;9.206;2023-02-01T16:43:31;6.43;;;3.97;;
9819;SDS011;4949;48.482;9.206;2023-02-01T16:48:35;8.13;;;4.50;;
9819;SDS011;4949;48.482;9.206;2023-02-01T16:53:40;5.00;;;2.93;;
9819;SDS011;4949;48.482;9.206;2023-02-01T16:58:40;5.03;;;4.33;;
9819;SDS011;4949;48.482;9.206;2023-02-01T17:03:46;5.37;;;3.30;;
9819;SDS011;4949;48.482;9.206;2023-02-01T17:08:49;4.00;;;3.37;;
9819;SDS011;4949;48.482;9.206;2023-02-01T17:13:53;9.20;;;4.83;;
9819;SDS011;4949;48.482;9.206;2023-02-01T17:23:59;5.80;;;4.90;;
9819;SDS011;4949;48.482;9.206;2023-02-01T17:29:00;5.83;;;3.63;;
9819;SDS011;4949;48.482;9.206;2023-02-01T17:34:03;12.07;;;3.50;;
9819;SDS011;4949;48.482;9.206;2023-02-01T17:39:09;8.30;;;3.73;;
9819;SDS011;4949;48.482;9.206;2023-02-01T17:44:10;10.17;;;4.00;;
9819;SDS011;4949;48.482;9.206;2023-02-01T17:49:13;5.93;;;3.80;;
9819;SDS011;4949;48.482;9.206;2023-02-01T17:54:15;8.87;;;4.60;;
9819;SDS011;4949;48.482;9.206;2023-02-01T17:59:21;12.53;;;4.90;;
9819;SDS011;4949;48.482;9.206;2023-02-01T18:04:22;4.63;;;3.70;;
9819;SDS011;4949;48.482;9.206;2023-02-01T18:09:23;4.70;;;3.97;;
9819;SDS011;4949;48.482;9.206;2023-02-01T18:14:23;5.70;;;3.83;;
9819;SDS011;4949;48.482;9.206;2023-02-01T18:19:27;7.90;;;3.50;;
9819;SDS011;4949;48.482;9.206;2023-02-01T18:24:27;9.43;;;3.60;;
9819;SDS011;4949;48.482;9.206;2023-02-01T18:29:33;5.00;;;3.47;;
9819;SDS011;4949;48.482;9.206;2023-02-01T18:34:41;11.57;;;4.27;;
9819;SDS011;4949;48.482;9.206;2023-02-01T18:39:44;6.93;;;3.93;;
9819;SDS011;4949;48.482;9.206;2023-02-01T18:44:49;6.47;;;3.37;;
9819;SDS011;4949;48.482;9.206;2023-02-01T18:49:50;6.43;;;3.83;;
9819;SDS011;4949;48.482;9.206;2023-02-01T18:54:51;9.90;;;4.20;;
9819;SDS011;4949;48.482;9.206;2023-02-01T18:59:52;6.33;;;3.63;;
9819;SDS011;4949;48.482;9.206;2023-02-01T19:04:57;7.53;;;3.67;;
9819;SDS011;4949;48.482;9.206;2023-02-01T19:09:58;6.80;;;3.30;;
9819;SDS011;4949;48.482;9.206;2023-02-01T19:14:59;9.03;;;3.30;;
9819;SDS011;4949;48.482;9.206;2023-02-01T19:20:00;4.23;;;2.87;;
9819;SDS011;4949;48.482;9.206;2023-02-01T19:25:02;5.23;;;3.20;;
9819;SDS011;4949;48.482;9.206;2023-02-01T19:30:03;4.63;;;3.13;;
9819;SDS011;4949;48.482;9.206;2023-02-01T19:35:05;5.50;;;3.40;;
9819;SDS011;4949;48.482;9.206;2023-02-01T19:40:12;6.07;;;3.23;;
9819;SDS011;4949;48.482;9.206;2023-02-01T19:45:16;6.90;;;3.23;;
9819;SDS011;4949;48.482;9.206;2023-02-01T19:50:19;7.57;;;4.00;;
9819;SDS011;4949;48.482;9.206;2023-02-01T19:55:21;9.10;;;3.50;;
9819;SDS011;4949;48.482;9.206;2023-02-01T20:00:24;8.87;;;4.00;;
9819;SDS011;4949;48.482;9.206;2023-02-01T20:05:28;7.50;;;3.07;;
9819;SDS011;4949;48.482;9.206;2023-02-01T20:10:28;6.43;;;2.80;;
9819;SDS011;4949;48.482;9.206;2023-02-01T20:15:29;6.70;;;3.10;;
9819;SDS011;4949;48.482;9.206;2023-02-01T20:20:30;6.00;;;3.10;;
9819;SDS011;4949;48.482;9.206;2023-02-01T20:25:31;5.77;;;3.10;;
9819;SDS011;4949;48.482;9.206;2023-02-01T20:30:31;4.73;;;3.10;;
9819;SDS011;4949;48.482;9.206;2023-02-01T20:35:32;4.70;;;3.00;;
9819;SDS011;4949;48.482;9.206;2023-02-01T20:40:35;6.87;;;3.53;;
9819;SDS011;4949;48.482;9.206;2023-02-01T20:45:40;5.03;;;3.03;;
9819;SDS011;4949;48.482;9.206;2023-02-01T20:50:42;4.60;;;3.00;;
9819;SDS011;4949;48.482;9.206;2023-02-01T20:55:42;7.00;;;4.13;;
9819;SDS011;4949;48.482;9.206;2023-02-01T21:00:43;6.17;;;2.93;;
9819;SDS011;4949;48.482;9.206;2023-02-01T21:05:46;10.17;;;3.37;;
9819;SDS011;4949;48.482;9.206;2023-02-01T21:10:55;8.37;;;4.13;;
9819;SDS011;4949;48.482;9.206;2023-02-01T21:15:57;6.97;;;3.37;;
9819;SDS011;4949;48.482;9.206;2023-02-01T21:21:08;7.50;;;3.00;;
9819;SDS011;4949;48.482;9.206;2023-02-01T21:26:14;3.90;;;3.27;;
9819;SDS011;4949;48.482;9.206;2023-02-01T21:31:22;6.53;;;2.90;;
9819;SDS011;4949;48.482;9.206;2023-02-01T21:36:24;7.03;;;3.33;;
9819;SDS011;4949;48.482;9.206;2023-02-01T21:41:31;8.10;;;3.03;;
9819;SDS011;4949;48.482;9.206;2023-02-01T21:47:11;10.73;;;3.13;;
9819;SDS011;4949;48.482;9.206;2023-02-01T21:52:13;11.53;;;3.63;;
9819;SDS011;4949;48.482;9.206;2023-02-01T21:57:19;5.57;;;3.13;;
9819;SDS011;4949;48.482;9.206;2023-02-01T22:02:20;3.50;;;2.70;;
9819;SDS011;4949;48.482;9.206;2023-02-01T22:07:21;6.17;;;3.67;;
9819;SDS011;4949;48.482;9.206;2023-02-01T22:12:26;5.97;;;3.10;;
9819;SDS011;4949;48.482;9.206;2023-02-01T22:17:29;7.40;;;3.10;;
9819;SDS011;4949;48.482;9.206;2023-02-01T22:22:33;11.63;;;4.37;;
9819;SDS011;4949;48.482;9.206;2023-02-01T22:27:34;5.10;;;3.40;;
9819;SDS011;4949;48.482;9.206;2023-02-01T22:32:35;6.80;;;3.53;;
9819;SDS011;4949;48.482;9.206;2023-02-01T22:37:35;5.87;;;2.80;;
9819;SDS011;4949;48.482;9.206;2023-02-01T22:42:37;6.27;;;3.00;;
9819;SDS011;4949;48.482;9.206;2023-02-01T22:47:37;12.30;;;3.60;;
9819;SDS011;4949;48.482;9.206;2023-02-01T22:52:38;7.03;;;3.10;;
9819;SDS011;4949;48.482;9.206;2023-02-01T22:57:39;9.27;;;3.27;;
9819;SDS011;4949;48.482;9.206;2023-02-01T23:02:42;4.00;;;2.60;;
9819;SDS011;4949;48.482;9.206;2023-02-01T23:07:46;4.47;;;2.80;;
9819;SDS011;4949;48.482;9.206;2023-02-01T23:12:52;5.67;;;3.20;;
9819;SDS011;4949;48.482;9.206;2023-02-01T23:17:53;4.33;;;3.17;;
9819;SDS011;4949;48.482;9.206;2023-02-01T23:22:54;7.17;;;2.70;;
9819;SDS011;4949;48.482;9.206;2023-02-01T23:27:59;7.60;;;4.20;;
9819;SDS011;4949;48.482;9.206;2023-02-01T23:33:00;5.50;;;3.17;;
9819;SDS011;4949;48.482;9.206;2023-02-01T23:38:01;6.77;;;3.40;;
9819;SDS011;4949;48.482;9.206;2023-02-01T23:43:01;5.77;;;2.73;;
9819;SDS011;4949;48.482;9.206;2023-02-01T23:48:21;8.10;;;2.90;;
9819;SDS011;4949;48.482;9.206;2023-02-01T23:53:22;5.37;;;3.00;;
9819;SDS011;4949;48.482;9.206;2023-02-01T23:58:22;9.50;;;3.63;;
